sensor_id;sensor_type;location;lat;lon;timestamp;P1;durP1;ratioP1;P2;durP2;ratioP2
5876;SDS011;2964;42.144;24.730;2023-04-03T00:01:26;5.33;;;4.40;;
5876;SDS011;2964;42.144;24.730;2023-04-03T00:03:53;4.27;;;4.00;;
5876;SDS011;2964;42.144;24.730;2023-04-03T00:06:20;7.40;;;4.57;;
5876;SDS011;2964;42.144;24.730;2023-04-03T00:08:49;4.43;;;4.23;;
5876;SDS011;2964;42.144;24.730;2023-04-03T00:11:16;4.07;;;3.97;;
5876;SDS011;2964;42.144;24.730;2023-04-03T00:13:43;3.70;;;3.60;;
5876;SDS011;2964;42.144;24.730;2023-04-03T00:16:11;4.17;;;3.93;;
5876;SDS011;2964;42.144;24.730;2023-04-03T00:18:38;4.37;;;4.13;;
5876;SDS011;2964;42.144;24.730;2023-04-03T00:21:06;5.47;;;4.00;;
5876;SDS011;2964;42.144;24.730;2023-04-03T00:23:33;5.07;;;3.97;;
5876;SDS011;2964;42.144;24.730;2023-04-03T00:26:01;4.17;;;3.97;;
5876;SDS011;2964;42.144;24.730;2023-04-03T00:28:28;4.30;;;3.60;;
5876;SDS011;2964;42.144;24.730;2023-04-03T00:30:55;4.43;;;4.03;;
5876;SDS011;2964;42.144;24.730;2023-04-03T00:33:22;4.13;;;4.03;;
5876;SDS011;2964;42.144;24.730;2023-04-03T00:35:49;5.33;;;3.33;;
5876;SDS011;2964;42.144;24.730;2023-04-03T00:38:16;4.23;;;3.80;;
5876;SDS011;2964;42.144;24.730;2023-04-03T00:40:44;3.83;;;3.67;;
5876;SDS011;2964;42.144;24.730;2023-04-03T00:43:15;4.00;;;3.70;;
5876;SDS011;2964;42.144;24.730;2023-04-03T00:45:44;3.93;;;3.73;;
5876;SDS011;2964;42.144;24.730;2023-04-03T00:48:14;4.07;;;3.57;;
5876;SDS011;2964;42.144;24.730;2023-04-03T00:50:44;4.40;;;4.17;;
5876;SDS011;2964;42.144;24.730;2023-04-03T00:53:13;4.13;;;3.90;;
5876;SDS011;2964;42.144;24.730;2023-04-03T00:55:43;4.40;;;4.20;;
5876;SDS011;2964;42.144;24.730;2023-04-03T00:58:11;4.33;;;3.90;;
5876;SDS011;2964;42.144;24.730;2023-04-03T01:00:42;4.33;;;4.13;;
5876;SDS011;2964;42.144;24.730;2023-04-03T01:03:12;4.20;;;3.90;;
5876;SDS011;2964;42.144;24.730;2023-04-03T01:05:39;5.13;;;3.97;;
5876;SDS011;2964;42.144;24.730;2023-04-03T01:08:06;3.57;;;3.37;;
5876;SDS011;2964;42.144;24.730;2023-04-03T01:10:33;4.10;;;3.90;;
5876;SDS011;2964;42.144;24.730;2023-04-03T01:13:00;4.50;;;4.30;;
5876;SDS011;2964;42.144;24.730;2023-04-03T01:15:28;3.73;;;3.63;;
5876;SDS011;2964;42.144;24.730;2023-04-03T01:17:59;4.17;;;3.97;;
5876;SDS011;2964;42.144;24.730;2023-04-03T01:23:44;4.17;;;3.97;;
5876;SDS011;2964;42.144;24.730;2023-04-03T01:26:18;4.23;;;4.07;;
5876;SDS011;2964;42.144;24.730;2023-04-03T01:28:45;4.53;;;4.23;;
5876;SDS011;2964;42.144;24.730;2023-04-03T01:31:15;5.10;;;4.17;;
5876;SDS011;2964;42.144;24.730;2023-04-03T01:33:49;3.83;;;3.73;;
5876;SDS011;2964;42.144;24.730;2023-04-03T01:36:17;4.37;;;3.90;;
5876;SDS011;2964;42.144;24.730;2023-04-03T01:38:46;4.10;;;3.90;;
5876;SDS011;2964;42.144;24.730;2023-04-03T01:41:13;4.60;;;4.40;;
5876;SDS011;2964;42.144;24.730;2023-04-03T01:43:40;4.53;;;4.33;;
5876;SDS011;2964;42.144;24.730;2023-04-03T01:46:07;4.03;;;3.83;;
5876;SDS011;2964;42.144;24.730;2023-04-03T01:48:33;4.77;;;4.57;;
5876;SDS011;2964;42.144;24.730;2023-04-03T01:51:02;4.23;;;4.03;;
5876;SDS011;2964;42.144;24.730;2023-04-03T01:53:28;4.03;;;3.83;;
5876;SDS011;2964;42.144;24.730;2023-04-03T01:55:55;4.07;;;3.93;;
5876;SDS011;2964;42.144;24.730;2023-04-03T01:58:22;4.50;;;4.27;;
5876;SDS011;2964;42.144;24.730;2023-04-03T02:00:48;4.30;;;4.10;;
5876;SDS011;2964;42.144;24.730;2023-04-03T02:03:15;4.17;;;3.87;;
5876;SDS011;2964;42.144;24.730;2023-04-03T02:05:42;4.87;;;4.47;;
5876;SDS011;2964;42.144;24.730;2023-04-03T02:08:10;4.30;;;4.10;;
5876;SDS011;2964;42.144;24.730;2023-04-03T02:10:38;4.33;;;4.13;;
5876;SDS011;2964;42.144;24.730;2023-04-03T02:13:04;5.03;;;4.83;;
5876;SDS011;2964;42.144;24.730;2023-04-03T02:15:31;4.57;;;4.27;;
5876;SDS011;2964;42.144;24.730;2023-04-03T02:17:58;4.37;;;4.07;;
5876;SDS011;2964;42.144;24.730;2023-04-03T02:20:24;6.63;;;4.33;;
5876;SDS011;2964;42.144;24.730;2023-04-03T02:22:51;4.87;;;4.47;;
5876;SDS011;2964;42.144;24.730;2023-04-03T02:25:19;4.73;;;4.37;;
5876;SDS011;2964;42.144;24.730;2023-04-03T02:27:46;4.40;;;4.00;;
5876;SDS011;2964;42.144;24.730;2023-04-03T02:30:13;4.73;;;4.53;;
5876;SDS011;2964;42.144;24.730;2023-04-03T02:32:40;4.37;;;4.17;;
5876;SDS011;2964;42.144;24.730;2023-04-03T02:35:07;4.90;;;4.60;;
5876;SDS011;2964;42.144;24.730;2023-04-03T02:37:34;5.23;;;4.73;;
5876;SDS011;2964;42.144;24.730;2023-04-03T02:40:01;4.27;;;4.07;;
5876;SDS011;2964;42.144;24.730;2023-04-03T02:42:30;4.30;;;4.00;;
5876;SDS011;2964;42.144;24.730;2023-04-03T02:44:56;4.93;;;4.50;;
5876;SDS011;2964;42.144;24.730;2023-04-03T02:47:25;5.20;;;4.90;;
5876;SDS011;2964;42.144;24.730;2023-04-03T02:49:52;4.30;;;4.10;;
5876;SDS011;2964;42.144;24.730;2023-04-03T02:52:19;4.47;;;4.27;;
5876;SDS011;2964;42.144;24.730;2023-04-03T02:54:46;4.50;;;4.30;;
5876;SDS011;2964;42.144;24.730;2023-04-03T02:57:13;4.40;;;4.13;;
5876;SDS011;2964;42.144;24.730;2023-04-03T02:59:41;4.87;;;4.57;;
5876;SDS011;2964;42.144;24.730;2023-04-03T03:02:09;4.77;;;4.37;;
5876;SDS011;2964;42.144;24.730;2023-04-03T03:04:36;4.50;;;4.20;;
5876;SDS011;2964;42.144;24.730;2023-04-03T03:07:03;4.27;;;4.07;;
5876;SDS011;2964;42.144;24.730;2023-04-03T03:09:30;4.63;;;4.33;;
5876;SDS011;2964;42.144;24.730;2023-04-03T03:11:57;4.60;;;4.30;;
5876;SDS011;2964;42.144;24.730;2023-04-03T03:14:23;5.03;;;4.63;;
5876;SDS011;2964;42.144;24.730;2023-04-03T03:16:51;4.83;;;4.47;;
5876;SDS011;2964;42.144;24.730;2023-04-03T03:19:18;9.13;;;5.43;;
5876;SDS011;2964;42.144;24.730;2023-04-03T03:21:45;6.10;;;5.60;;
5876;SDS011;2964;42.144;24.730;2023-04-03T03:24:12;5.40;;;5.03;;
5876;SDS011;2964;42.144;24.730;2023-04-03T03:26:38;4.90;;;4.60;;
5876;SDS011;2964;42.144;24.730;2023-04-03T03:29:05;5.27;;;4.97;;
5876;SDS011;2964;42.144;24.730;2023-04-03T03:31:32;6.83;;;5.43;;
5876;SDS011;2964;42.144;24.730;2023-04-03T03:34:00;7.10;;;5.07;;
5876;SDS011;2964;42.144;24.730;2023-04-03T03:36:26;5.83;;;5.33;;
5876;SDS011;2964;42.144;24.730;2023-04-03T03:38:53;4.90;;;4.50;;
5876;SDS011;2964;42.144;24.730;2023-04-03T03:41:20;5.10;;;4.70;;
5876;SDS011;2964;42.144;24.730;2023-04-03T03:43:46;5.27;;;4.77;;
5876;SDS011;2964;42.144;24.730;2023-04-03T03:46:13;5.20;;;4.90;;
5876;SDS011;2964;42.144;24.730;2023-04-03T03:48:39;5.67;;;5.17;;
5876;SDS011;2964;42.144;24.730;2023-04-03T03:51:07;5.53;;;4.57;;
5876;SDS011;2964;42.144;24.730;2023-04-03T03:53:37;8.40;;;5.37;;
5876;SDS011;2964;42.144;24.730;2023-04-03T03:56:04;7.53;;;5.43;;
5876;SDS011;2964;42.144;24.730;2023-04-03T03:58:31;8.83;;;5.67;;
5876;SDS011;2964;42.144;24.730;2023-04-03T04:00:59;5.63;;;5.20;;
5876;SDS011;2964;42.144;24.730;2023-04-03T04:03:27;6.10;;;5.50;;
5876;SDS011;2964;42.144;24.730;2023-04-03T04:05:53;6.27;;;5.60;;
5876;SDS011;2964;42.144;24.730;2023-04-03T04:08:22;7.20;;;5.47;;
5876;SDS011;2964;42.144;24.730;2023-04-03T04:10:48;6.70;;;6.10;;
5876;SDS011;2964;42.144;24.730;2023-04-03T04:13:15;10.40;;;6.33;;
5876;SDS011;2964;42.144;24.730;2023-04-03T04:15:42;9.10;;;6.93;;
5876;SDS011;2964;42.144;24.730;2023-04-03T04:18:09;8.30;;;6.90;;
5876;SDS011;2964;42.144;24.730;2023-04-03T04:20:36;8.37;;;7.60;;
5876;SDS011;2964;42.144;24.730;2023-04-03T04:23:02;10.43;;;7.23;;
5876;SDS011;2964;42.144;24.730;2023-04-03T04:25:30;17.50;;;7.43;;
5876;SDS011;2964;42.144;24.730;2023-04-03T04:27:57;18.63;;;8.47;;
5876;SDS011;2964;42.144;24.730;2023-04-03T04:30:24;20.67;;;8.30;;
5876;SDS011;2964;42.144;24.730;2023-04-03T04:32:52;26.20;;;8.57;;
5876;SDS011;2964;42.144;24.730;2023-04-03T04:35:19;20.60;;;8.13;;
5876;SDS011;2964;42.144;24.730;2023-04-03T04:37:45;10.90;;;8.03;;
5876;SDS011;2964;42.144;24.730;2023-04-03T04:40:12;18.17;;;8.90;;
5876;SDS011;2964;42.144;24.730;2023-04-03T04:42:43;19.87;;;6.97;;
5876;SDS011;2964;42.144;24.730;2023-04-03T04:45:12;9.27;;;7.10;;
5876;SDS011;2964;42.144;24.730;2023-04-03T04:47:40;16.80;;;8.13;;
5876;SDS011;2964;42.144;24.730;2023-04-03T04:50:07;17.33;;;8.67;;
5876;SDS011;2964;42.144;24.730;2023-04-03T04:52:34;17.30;;;8.93;;
5876;SDS011;2964;42.144;24.730;2023-04-03T04:55:01;10.80;;;8.47;;
5876;SDS011;2964;42.144;24.730;2023-04-03T04:57:28;13.83;;;8.73;;
5876;SDS011;2964;42.144;24.730;2023-04-03T04:59:56;10.10;;;7.53;;
5876;SDS011;2964;42.144;24.730;2023-04-03T05:02:23;9.73;;;7.03;;
5876;SDS011;2964;42.144;24.730;2023-04-03T05:04:49;16.33;;;7.37;;
5876;SDS011;2964;42.144;24.730;2023-04-03T05:07:17;11.70;;;7.33;;
5876;SDS011;2964;42.144;24.730;2023-04-03T05:09:43;8.03;;;6.83;;
5876;SDS011;2964;42.144;24.730;2023-04-03T05:12:10;11.17;;;7.50;;
5876;SDS011;2964;42.144;24.730;2023-04-03T05:14:37;8.47;;;7.77;;
5876;SDS011;2964;42.144;24.730;2023-04-03T05:17:05;10.23;;;8.07;;
5876;SDS011;2964;42.144;24.730;2023-04-03T05:19:32;12.73;;;7.90;;
5876;SDS011;2964;42.144;24.730;2023-04-03T05:21:59;10.30;;;8.30;;
5876;SDS011;2964;42.144;24.730;2023-04-03T05:24:26;14.50;;;8.33;;
5876;SDS011;2964;42.144;24.730;2023-04-03T05:26:52;9.80;;;7.80;;
5876;SDS011;2964;42.144;24.730;2023-04-03T05:29:20;10.53;;;7.37;;
5876;SDS011;2964;42.144;24.730;2023-04-03T05:31:48;9.27;;;8.37;;
5876;SDS011;2964;42.144;24.730;2023-04-03T05:34:16;8.53;;;7.60;;
5876;SDS011;2964;42.144;24.730;2023-04-03T05:36:43;7.93;;;7.40;;
5876;SDS011;2964;42.144;24.730;2023-04-03T05:39:10;7.87;;;7.37;;
5876;SDS011;2964;42.144;24.730;2023-04-03T05:41:37;8.23;;;7.40;;
5876;SDS011;2964;42.144;24.730;2023-04-03T05:44:03;8.10;;;7.20;;
5876;SDS011;2964;42.144;24.730;2023-04-03T05:46:30;10.50;;;7.50;;
5876;SDS011;2964;42.144;24.730;2023-04-03T05:48:58;14.20;;;7.30;;
5876;SDS011;2964;42.144;24.730;2023-04-03T05:51:28;6.50;;;6.07;;
5876;SDS011;2964;42.144;24.730;2023-04-03T05:53:58;10.10;;;6.63;;
5876;SDS011;2964;42.144;24.730;2023-04-03T05:56:29;9.87;;;7.70;;
5876;SDS011;2964;42.144;24.730;2023-04-03T05:58:55;7.87;;;6.63;;
5876;SDS011;2964;42.144;24.730;2023-04-03T06:01:22;8.23;;;6.87;;
5876;SDS011;2964;42.144;24.730;2023-04-03T06:03:49;7.63;;;7.03;;
5876;SDS011;2964;42.144;24.730;2023-04-03T06:06:16;7.57;;;6.87;;
5876;SDS011;2964;42.144;24.730;2023-04-03T06:08:44;10.43;;;7.53;;
5876;SDS011;2964;42.144;24.730;2023-04-03T06:11:11;13.07;;;7.00;;
5876;SDS011;2964;42.144;24.730;2023-04-03T06:13:38;14.67;;;8.07;;
5876;SDS011;2964;42.144;24.730;2023-04-03T06:16:05;15.97;;;9.17;;
5876;SDS011;2964;42.144;24.730;2023-04-03T06:18:32;14.07;;;9.07;;
5876;SDS011;2964;42.144;24.730;2023-04-03T06:20:58;8.73;;;7.93;;
5876;SDS011;2964;42.144;24.730;2023-04-03T06:23:25;10.27;;;8.63;;
5876;SDS011;2964;42.144;24.730;2023-04-03T06:25:54;13.37;;;9.67;;
5876;SDS011;2964;42.144;24.730;2023-04-03T06:28:20;13.57;;;8.60;;
5876;SDS011;2964;42.144;24.730;2023-04-03T06:30:47;29.57;;;10.70;;
5876;SDS011;2964;42.144;24.730;2023-04-03T06:33:14;23.77;;;10.37;;
5876;SDS011;2964;42.144;24.730;2023-04-03T06:35:40;14.17;;;9.37;;
5876;SDS011;2964;42.144;24.730;2023-04-03T06:38:07;15.03;;;8.70;;
5876;SDS011;2964;42.144;24.730;2023-04-03T06:40:34;8.97;;;7.67;;
5876;SDS011;2964;42.144;24.730;2023-04-03T06:43:03;10.67;;;7.83;;
5876;SDS011;2964;42.144;24.730;2023-04-03T06:45:30;8.70;;;7.80;;
5876;SDS011;2964;42.144;24.730;2023-04-03T06:47:56;15.00;;;8.03;;
5876;SDS011;2964;42.144;24.730;2023-04-03T06:50:23;7.27;;;6.23;;
5876;SDS011;2964;42.144;24.730;2023-04-03T06:52:51;8.27;;;7.67;;
5876;SDS011;2964;42.144;24.730;2023-04-03T06:55:17;6.40;;;6.00;;
5876;SDS011;2964;42.144;24.730;2023-04-03T06:57:44;7.47;;;6.90;;
5876;SDS011;2964;42.144;24.730;2023-04-03T07:00:13;8.20;;;7.43;;
5876;SDS011;2964;42.144;24.730;2023-04-03T07:02:41;8.00;;;7.33;;
5876;SDS011;2964;42.144;24.730;2023-04-03T07:05:08;6.77;;;6.13;;
5876;SDS011;2964;42.144;24.730;2023-04-03T07:07:35;6.60;;;6.07;;
5876;SDS011;2964;42.144;24.730;2023-04-03T07:10:03;7.37;;;6.63;;
5876;SDS011;2964;42.144;24.730;2023-04-03T07:12:30;7.40;;;6.70;;
5876;SDS011;2964;42.144;24.730;2023-04-03T07:14:57;6.63;;;5.73;;
5876;SDS011;2964;42.144;24.730;2023-04-03T07:17:26;8.13;;;5.90;;
5876;SDS011;2964;42.144;24.730;2023-04-03T07:19:52;8.10;;;6.43;;
5876;SDS011;2964;42.144;24.730;2023-04-03T07:22:19;6.33;;;5.67;;
5876;SDS011;2964;42.144;24.730;2023-04-03T07:24:46;9.17;;;6.30;;
5876;SDS011;2964;42.144;24.730;2023-04-03T07:27:12;6.37;;;5.97;;
5876;SDS011;2964;42.144;24.730;2023-04-03T07:29:39;6.70;;;6.10;;
5876;SDS011;2964;42.144;24.730;2023-04-03T07:32:06;7.33;;;5.77;;
5876;SDS011;2964;42.144;24.730;2023-04-03T07:34:34;6.87;;;5.67;;
5876;SDS011;2964;42.144;24.730;2023-04-03T07:37:01;6.10;;;5.70;;
5876;SDS011;2964;42.144;24.730;2023-04-03T07:39:27;6.13;;;5.67;;
5876;SDS011;2964;42.144;24.730;2023-04-03T07:41:54;6.67;;;6.10;;
5876;SDS011;2964;42.144;24.730;2023-04-03T07:44:21;5.43;;;5.07;;
5876;SDS011;2964;42.144;24.730;2023-04-03T07:46:48;5.47;;;5.07;;
5876;SDS011;2964;42.144;24.730;2023-04-03T07:49:15;6.20;;;5.60;;
5876;SDS011;2964;42.144;24.730;2023-04-03T07:51:44;5.87;;;5.57;;
5876;SDS011;2964;42.144;24.730;2023-04-03T07:54:11;6.47;;;6.00;;
5876;SDS011;2964;42.144;24.730;2023-04-03T07:56:38;5.97;;;5.67;;
5876;SDS011;2964;42.144;24.730;2023-04-03T07:59:05;6.20;;;5.70;;
5876;SDS011;2964;42.144;24.730;2023-04-03T08:01:32;6.10;;;5.50;;
5876;SDS011;2964;42.144;24.730;2023-04-03T08:03:59;5.17;;;4.97;;
5876;SDS011;2964;42.144;24.730;2023-04-03T08:06:26;10.47;;;7.50;;
5876;SDS011;2964;42.144;24.730;2023-04-03T08:08:55;5.57;;;5.33;;
5876;SDS011;2964;42.144;24.730;2023-04-03T08:11:22;6.67;;;5.83;;
5876;SDS011;2964;42.144;24.730;2023-04-03T08:13:51;6.43;;;4.77;;
5876;SDS011;2964;42.144;24.730;2023-04-03T08:16:20;4.87;;;4.60;;
5876;SDS011;2964;42.144;24.730;2023-04-03T08:18:48;6.27;;;4.07;;
5876;SDS011;2964;42.144;24.730;2023-04-03T08:21:14;5.03;;;4.60;;
5876;SDS011;2964;42.144;24.730;2023-04-03T08:23:42;4.80;;;4.33;;
5876;SDS011;2964;42.144;24.730;2023-04-03T08:26:10;6.60;;;5.23;;
5876;SDS011;2964;42.144;24.730;2023-04-03T08:28:39;6.37;;;5.90;;
5876;SDS011;2964;42.144;24.730;2023-04-03T08:31:08;5.23;;;4.83;;
5876;SDS011;2964;42.144;24.730;2023-04-03T08:33:36;5.53;;;5.23;;
5876;SDS011;2964;42.144;24.730;2023-04-03T08:36:04;5.60;;;5.20;;
5876;SDS011;2964;42.144;24.730;2023-04-03T08:38:32;7.47;;;6.60;;
5876;SDS011;2964;42.144;24.730;2023-04-03T08:41:02;8.93;;;6.83;;
5876;SDS011;2964;42.144;24.730;2023-04-03T08:43:40;12.20;;;6.93;;
5876;SDS011;2964;42.144;24.730;2023-04-03T08:46:19;8.27;;;6.90;;
5876;SDS011;2964;42.144;24.730;2023-04-03T08:48:51;10.57;;;7.63;;
5876;SDS011;2964;42.144;24.730;2023-04-03T08:51:19;14.40;;;7.73;;
5876;SDS011;2964;42.144;24.730;2023-04-03T08:53:49;14.43;;;8.13;;
5876;SDS011;2964;42.144;24.730;2023-04-03T08:56:22;19.87;;;9.00;;
5876;SDS011;2964;42.144;24.730;2023-04-03T08:58:55;17.87;;;7.07;;
5876;SDS011;2964;42.144;24.730;2023-04-03T09:01:23;14.97;;;10.87;;
5876;SDS011;2964;42.144;24.730;2023-04-03T09:03:53;13.27;;;10.60;;
5876;SDS011;2964;42.144;24.730;2023-04-03T09:06:20;14.27;;;11.40;;
5876;SDS011;2964;42.144;24.730;2023-04-03T09:08:51;9.63;;;6.17;;
5876;SDS011;2964;42.144;24.730;2023-04-03T09:11:24;9.87;;;5.87;;
5876;SDS011;2964;42.144;24.730;2023-04-03T09:13:57;5.67;;;5.17;;
5876;SDS011;2964;42.144;24.730;2023-04-03T09:16:32;7.90;;;5.53;;
5876;SDS011;2964;42.144;24.730;2023-04-03T09:19:07;7.43;;;6.83;;
5876;SDS011;2964;42.144;24.730;2023-04-03T09:21:43;7.80;;;6.87;;
5876;SDS011;2964;42.144;24.730;2023-04-03T09:24:10;6.67;;;5.97;;
5876;SDS011;2964;42.144;24.730;2023-04-03T09:26:41;7.17;;;6.50;;
5876;SDS011;2964;42.144;24.730;2023-04-03T09:29:14;6.67;;;6.27;;
5876;SDS011;2964;42.144;24.730;2023-04-03T09:31:46;7.80;;;6.83;;
5876;SDS011;2964;42.144;24.730;2023-04-03T09:34:18;6.27;;;5.60;;
5876;SDS011;2964;42.144;24.730;2023-04-03T09:36:49;6.60;;;6.00;;
5876;SDS011;2964;42.144;24.730;2023-04-03T09:39:18;5.97;;;5.57;;
5876;SDS011;2964;42.144;24.730;2023-04-03T09:42:00;8.40;;;6.07;;
5876;SDS011;2964;42.144;24.730;2023-04-03T09:44:30;7.07;;;5.53;;
5876;SDS011;2964;42.144;24.730;2023-04-03T09:46:59;6.10;;;5.50;;
5876;SDS011;2964;42.144;24.730;2023-04-03T09:49:43;5.43;;;4.97;;
5876;SDS011;2964;42.144;24.730;2023-04-03T09:52:18;4.73;;;4.43;;
5876;SDS011;2964;42.144;24.730;2023-04-03T09:54:45;4.97;;;4.73;;
5876;SDS011;2964;42.144;24.730;2023-04-03T09:57:12;4.80;;;4.53;;
5876;SDS011;2964;42.144;24.730;2023-04-03T09:59:42;5.20;;;4.90;;
5876;SDS011;2964;42.144;24.730;2023-04-03T10:02:34;5.80;;;5.33;;
5876;SDS011;2964;42.144;24.730;2023-04-03T10:05:02;5.10;;;4.80;;
5876;SDS011;2964;42.144;24.730;2023-04-03T10:07:32;5.50;;;5.20;;
5876;SDS011;2964;42.144;24.730;2023-04-03T10:10:02;5.03;;;4.73;;
5876;SDS011;2964;42.144;24.730;2023-04-03T10:12:41;5.27;;;5.00;;
5876;SDS011;2964;42.144;24.730;2023-04-03T10:15:11;4.50;;;4.30;;
5876;SDS011;2964;42.144;24.730;2023-04-03T10:17:45;5.10;;;4.80;;
5876;SDS011;2964;42.144;24.730;2023-04-03T10:20:23;4.87;;;4.50;;
5876;SDS011;2964;42.144;24.730;2023-04-03T10:22:58;5.30;;;4.97;;
5876;SDS011;2964;42.144;24.730;2023-04-03T10:25:31;4.90;;;4.67;;
5876;SDS011;2964;42.144;24.730;2023-04-03T10:28:07;6.83;;;5.03;;
5876;SDS011;2964;42.144;24.730;2023-04-03T10:30:42;6.90;;;5.30;;
5876;SDS011;2964;42.144;24.730;2023-04-03T10:33:20;5.40;;;5.10;;
5876;SDS011;2964;42.144;24.730;2023-04-03T10:36:01;7.83;;;7.20;;
5876;SDS011;2964;42.144;24.730;2023-04-03T10:38:39;5.83;;;5.43;;
5876;SDS011;2964;42.144;24.730;2023-04-03T10:41:16;5.43;;;5.13;;
5876;SDS011;2964;42.144;24.730;2023-04-03T10:43:50;5.27;;;4.87;;
5876;SDS011;2964;42.144;24.730;2023-04-03T10:46:28;5.60;;;5.30;;
5876;SDS011;2964;42.144;24.730;2023-04-03T10:49:05;6.07;;;5.57;;
5876;SDS011;2964;42.144;24.730;2023-04-03T10:51:41;6.30;;;5.63;;
5876;SDS011;2964;42.144;24.730;2023-04-03T10:54:11;5.00;;;4.70;;
5876;SDS011;2964;42.144;24.730;2023-04-03T10:56:42;5.93;;;5.53;;
5876;SDS011;2964;42.144;24.730;2023-04-03T10:59:16;6.53;;;6.03;;
5876;SDS011;2964;42.144;24.730;2023-04-03T11:01:51;6.07;;;5.77;;
5876;SDS011;2964;42.144;24.730;2023-04-03T11:04:21;6.30;;;5.63;;
5876;SDS011;2964;42.144;24.730;2023-04-03T11:06:53;7.37;;;5.80;;
5876;SDS011;2964;42.144;24.730;2023-04-03T11:09:26;6.00;;;5.57;;
5876;SDS011;2964;42.144;24.730;2023-04-03T11:11:58;7.10;;;5.80;;
5876;SDS011;2964;42.144;24.730;2023-04-03T11:14:31;6.73;;;5.93;;
5876;SDS011;2964;42.144;24.730;2023-04-03T11:17:14;6.40;;;5.53;;
5876;SDS011;2964;42.144;24.730;2023-04-03T11:19:49;5.53;;;5.13;;
5876;SDS011;2964;42.144;24.730;2023-04-03T11:22:24;6.13;;;5.60;;
5876;SDS011;2964;42.144;24.730;2023-04-03T11:24:56;6.30;;;5.73;;
5876;SDS011;2964;42.144;24.730;2023-04-03T11:27:30;6.23;;;5.83;;
5876;SDS011;2964;42.144;24.730;2023-04-03T11:30:05;6.50;;;6.10;;
5876;SDS011;2964;42.144;24.730;2023-04-03T11:32:51;5.87;;;5.47;;
5876;SDS011;2964;42.144;24.730;2023-04-03T11:35:26;6.80;;;6.33;;
5876;SDS011;2964;42.144;24.730;2023-04-03T11:37:54;5.77;;;5.47;;
5876;SDS011;2964;42.144;24.730;2023-04-03T11:40:22;5.87;;;5.57;;
5876;SDS011;2964;42.144;24.730;2023-04-03T11:42:52;5.33;;;5.10;;
5876;SDS011;2964;42.144;24.730;2023-04-03T11:45:27;6.20;;;5.90;;
5876;SDS011;2964;42.144;24.730;2023-04-03T11:48:01;6.07;;;5.57;;
5876;SDS011;2964;42.144;24.730;2023-04-03T11:50:31;7.23;;;6.73;;
5876;SDS011;2964;42.144;24.730;2023-04-03T11:53:29;7.17;;;6.57;;
5876;SDS011;2964;42.144;24.730;2023-04-03T11:55:58;6.80;;;6.40;;
5876;SDS011;2964;42.144;24.730;2023-04-03T11:58:27;7.40;;;6.90;;
5876;SDS011;2964;42.144;24.730;2023-04-03T12:00:59;7.60;;;6.93;;
5876;SDS011;2964;42.144;24.730;2023-04-03T12:12:29;8.60;;;8.13;;
5876;SDS011;2964;42.144;24.730;2023-04-03T12:17:45;10.63;;;9.30;;
5876;SDS011;2964;42.144;24.730;2023-04-03T12:23:31;8.50;;;7.80;;
5876;SDS011;2964;42.144;24.730;2023-04-03T12:26:00;10.60;;;9.33;;
5876;SDS011;2964;42.144;24.730;2023-04-03T12:28:34;10.07;;;9.17;;
5876;SDS011;2964;42.144;24.730;2023-04-03T12:31:04;12.90;;;8.67;;
5876;SDS011;2964;42.144;24.730;2023-04-03T12:33:37;9.17;;;8.30;;
5876;SDS011;2964;42.144;24.730;2023-04-03T12:36:15;9.20;;;8.40;;
5876;SDS011;2964;42.144;24.730;2023-04-03T12:39:00;8.40;;;7.80;;
5876;SDS011;2964;42.144;24.730;2023-04-03T12:41:42;9.47;;;7.80;;
5876;SDS011;2964;42.144;24.730;2023-04-03T12:44:21;9.80;;;9.00;;
5876;SDS011;2964;42.144;24.730;2023-04-03T12:46:59;11.17;;;8.30;;
5876;SDS011;2964;42.144;24.730;2023-04-03T12:49:33;9.70;;;8.70;;
5876;SDS011;2964;42.144;24.730;2023-04-03T12:52:06;10.10;;;9.03;;
5876;SDS011;2964;42.144;24.730;2023-04-03T12:54:46;10.90;;;10.00;;
5876;SDS011;2964;42.144;24.730;2023-04-03T12:57:17;10.57;;;9.80;;
5876;SDS011;2964;42.144;24.730;2023-04-03T12:59:45;9.47;;;8.77;;
5876;SDS011;2964;42.144;24.730;2023-04-03T13:02:17;9.67;;;8.80;;
5876;SDS011;2964;42.144;24.730;2023-04-03T13:04:48;11.13;;;10.33;;
5876;SDS011;2964;42.144;24.730;2023-04-03T13:07:20;10.17;;;9.43;;
5876;SDS011;2964;42.144;24.730;2023-04-03T13:10:02;9.53;;;8.90;;
5876;SDS011;2964;42.144;24.730;2023-04-03T13:12:45;10.17;;;9.27;;
5876;SDS011;2964;42.144;24.730;2023-04-03T13:15:14;10.47;;;9.63;;
5876;SDS011;2964;42.144;24.730;2023-04-03T13:17:42;10.93;;;10.03;;
5876;SDS011;2964;42.144;24.730;2023-04-03T13:20:10;10.23;;;9.30;;
5876;SDS011;2964;42.144;24.730;2023-04-03T13:22:39;12.50;;;11.37;;
5876;SDS011;2964;42.144;24.730;2023-04-03T13:25:16;12.40;;;11.27;;
5876;SDS011;2964;42.144;24.730;2023-04-03T13:27:45;12.03;;;10.83;;
5876;SDS011;2964;42.144;24.730;2023-04-03T13:30:19;12.50;;;11.23;;
5876;SDS011;2964;42.144;24.730;2023-04-03T13:32:50;13.60;;;12.03;;
5876;SDS011;2964;42.144;24.730;2023-04-03T13:35:30;12.20;;;11.10;;
5876;SDS011;2964;42.144;24.730;2023-04-03T13:38:00;14.43;;;12.60;;
5876;SDS011;2964;42.144;24.730;2023-04-03T13:40:32;18.47;;;16.73;;
5876;SDS011;2964;42.144;24.730;2023-04-03T13:43:04;13.73;;;12.60;;
5876;SDS011;2964;42.144;24.730;2023-04-03T13:45:52;13.63;;;12.63;;
5876;SDS011;2964;42.144;24.730;2023-04-03T13:48:22;12.23;;;10.97;;
5876;SDS011;2964;42.144;24.730;2023-04-03T13:50:51;13.20;;;12.17;;
5876;SDS011;2964;42.144;24.730;2023-04-03T13:53:21;13.40;;;12.20;;
5876;SDS011;2964;42.144;24.730;2023-04-03T13:56:00;15.60;;;14.10;;
5876;SDS011;2964;42.144;24.730;2023-04-03T13:58:33;15.93;;;14.53;;
5876;SDS011;2964;42.144;24.730;2023-04-03T14:01:06;15.63;;;14.33;;
5876;SDS011;2964;42.144;24.730;2023-04-03T14:03:37;16.40;;;14.90;;
5876;SDS011;2964;42.144;24.730;2023-04-03T14:06:08;17.10;;;15.60;;
5876;SDS011;2964;42.144;24.730;2023-04-03T14:08:37;18.50;;;16.80;;
5876;SDS011;2964;42.144;24.730;2023-04-03T14:11:05;17.87;;;16.23;;
5876;SDS011;2964;42.144;24.730;2023-04-03T14:13:32;17.83;;;15.97;;
5876;SDS011;2964;42.144;24.730;2023-04-03T14:15:59;19.20;;;17.33;;
5876;SDS011;2964;42.144;24.730;2023-04-03T14:18:26;18.10;;;16.27;;
5876;SDS011;2964;42.144;24.730;2023-04-03T14:20:53;32.40;;;18.80;;
5876;SDS011;2964;42.144;24.730;2023-04-03T14:23:20;17.90;;;16.07;;
5876;SDS011;2964;42.144;24.730;2023-04-03T14:25:46;17.97;;;15.47;;
5876;SDS011;2964;42.144;24.730;2023-04-03T14:28:16;16.03;;;14.27;;
5876;SDS011;2964;42.144;24.730;2023-04-03T14:30:46;14.37;;;13.37;;
5876;SDS011;2964;42.144;24.730;2023-04-03T14:33:15;13.30;;;12.20;;
5876;SDS011;2964;42.144;24.730;2023-04-03T14:35:43;14.13;;;12.77;;
5876;SDS011;2964;42.144;24.730;2023-04-03T14:38:20;14.43;;;13.30;;
5876;SDS011;2964;42.144;24.730;2023-04-03T14:40:49;14.10;;;13.00;;
5876;SDS011;2964;42.144;24.730;2023-04-03T14:43:18;13.93;;;12.73;;
5876;SDS011;2964;42.144;24.730;2023-04-03T14:45:45;15.53;;;13.67;;
5876;SDS011;2964;42.144;24.730;2023-04-03T14:48:15;16.73;;;14.77;;
5876;SDS011;2964;42.144;24.730;2023-04-03T14:50:45;17.97;;;15.83;;
5876;SDS011;2964;42.144;24.730;2023-04-03T14:53:12;17.67;;;15.73;;
5876;SDS011;2964;42.144;24.730;2023-04-03T14:55:40;23.17;;;15.87;;
5876;SDS011;2964;42.144;24.730;2023-04-03T14:58:08;19.53;;;14.47;;
5876;SDS011;2964;42.144;24.730;2023-04-03T15:00:40;18.93;;;15.93;;
5876;SDS011;2964;42.144;24.730;2023-04-03T15:03:09;17.77;;;15.80;;
5876;SDS011;2964;42.144;24.730;2023-04-03T15:05:40;20.97;;;15.33;;
5876;SDS011;2964;42.144;24.730;2023-04-03T15:08:09;18.37;;;16.33;;
5876;SDS011;2964;42.144;24.730;2023-04-03T15:10:44;17.73;;;16.03;;
5876;SDS011;2964;42.144;24.730;2023-04-03T15:13:11;19.33;;;17.47;;
5876;SDS011;2964;42.144;24.730;2023-04-03T15:15:39;17.93;;;16.07;;
5876;SDS011;2964;42.144;24.730;2023-04-03T15:18:09;23.87;;;17.40;;
5876;SDS011;2964;42.144;24.730;2023-04-03T15:20:40;18.13;;;16.23;;
5876;SDS011;2964;42.144;24.730;2023-04-03T15:23:08;23.67;;;17.80;;
5876;SDS011;2964;42.144;24.730;2023-04-03T15:25:36;19.37;;;17.27;;
5876;SDS011;2964;42.144;24.730;2023-04-03T15:28:02;26.33;;;18.80;;